Aviation Digital Data Service (ADDS)

Output produced by TAFs form (0745 UTC 29 May 2017)
found at http://www.aviationweather.gov/adds/tafs/
 
METAR text: RJSA 290700Z 25012KT CAVOK 24/08 Q1009
Conditions at: RJSA (AOMORI AIRPORT , JP) observed 0700 UTC 29 May 2017
Temperature: 24.0°C (75°F)
Dewpoint: 8.0°C (46°F) [RH = 36%]
Pressure (altimeter): 29.79 inches Hg (1009.0 mb)
Winds: from the WSW (250 degrees) at 14 MPH (12 knots; 6.2 m/s)
Visibility: 6 or more miles (10+ km)
Ceiling: ceiling and visibility are OK
Clouds: unknown
Weather: no significant weather observed at this time

Forecast for: RJSA (AOMORI AIRPORT , JP)
Text: TAF RJSA 290505Z 2906/3012 23010KT 9999 FEW030
Forecast period: 0600 UTC 29 May 2017 to 1200 UTC 30 May 2017
Forecast type: FROM: standard forecast or significant change
Winds: from the SW (230 degrees) at 12 MPH (10 knots; 5.2 m/s)
Visibility: 6 or more miles (10+ km)
Clouds: few clouds at 3000 feet AGL
Weather: no significant weather forecast for this period